Time;durP1;ratioP1;P1;durP2;ratioP2;P2;SDS_P1;SDS_P2;PMS_P1;PMS_P2;Temp;Humidity;BMP_temperature;BMP_pressure;BME280_temperature;BME280_humidity;BME280_pressure;Samples;Min_cycle;Max_cycle;Signal;HPM_P1;HPM_P2
2022/10/13 00:01:28;;;;;;;11.73;3.08;;;;;;;;;;5015033;28;20065;-28
2022/10/13 00:03:55;;;;;;;13.65;4.10;;;;;;;;;;5014156;28;20495;-27
2022/10/13 00:06:23;;;;;;;12.85;3.20;;;;;;;;;;5014357;28;20030;-27
2022/10/13 00:08:49;;;;;;;19.73;3.45;;;;;;;;;;5014409;28;20022;-27
2022/10/13 00:11:20;;;;;;;12.38;3.72;;;;;;;;;;5014440;28;20024;-27
2022/10/13 00:13:46;;;;;;;7.97;2.42;;;;;;;;;;5014605;28;20397;-28
2022/10/13 00:16:13;;;;;;;9.45;2.38;;;;;;;;;;5014374;28;20038;-28
2022/10/13 00:18:40;;;;;;;12.27;2.40;;;;;;;;;;5014640;28;20398;-27
2022/10/13 00:21:10;;;;;;;10.88;3.10;;;;;;;;;;5014327;28;20045;-27
2022/10/13 00:23:36;;;;;;;15.52;2.60;;;;;;;;;;5014696;28;20030;-28
2022/10/13 00:26:04;;;;;;;16.85;2.67;;;;;;;;;;5018054;28;20029;-27
2022/10/13 00:28:30;;;;;;;9.65;3.05;;;;;;;;;;5018164;28;20042;-28
2022/10/13 00:30:56;;;;;;;11.85;3.25;;;;;;;;;;5017785;28;20036;-28
2022/10/13 00:33:23;;;;;;;10.13;3.55;;;;;;;;;;5018001;28;20034;-27
2022/10/13 00:35:49;;;;;;;8.57;2.40;;;;;;;;;;5018035;28;20359;-27
2022/10/13 00:38:16;;;;;;;11.60;2.47;;;;;;;;;;5017721;28;20456;-28
2022/10/13 00:40:50;;;;;;;10.10;2.47;;;;;;;;;;5017664;28;20084;-28
2022/10/13 00:43:21;;;;;;;7.93;2.03;;;;;;;;;;5017821;28;20029;-27
2022/10/13 00:45:50;;;;;;;13.05;2.75;;;;;;;;;;5017535;28;20033;-28
2022/10/13 00:48:27;;;;;;;11.05;3.05;;;;;;;;;;5017826;28;20026;-28
2022/10/13 00:50:53;;;;;;;7.75;2.60;;;;;;;;;;5017508;28;20105;-28
2022/10/13 00:53:21;;;;;;;7.20;2.20;;;;;;;;;;5017385;28;20041;-28
2022/10/13 00:55:49;;;;;;;10.93;2.08;;;;;;;;;;5017418;28;20040;-27
2022/10/13 00:58:16;;;;;;;7.53;2.67;;;;;;;;;;5017613;28;20026;-28
2022/10/13 01:00:46;;;;;;;7.18;2.42;;;;;;;;;;5017620;28;20033;-27
2022/10/13 01:03:12;;;;;;;8.35;2.63;;;;;;;;;;5017143;28;20056;-28
2022/10/13 01:05:39;;;;;;;8.27;3.42;;;;;;;;;;5017175;28;20022;-27
2022/10/13 01:08:06;;;;;;;10.77;2.60;;;;;;;;;;5017140;28;20083;-27
2022/10/13 01:10:45;;;;;;;11.27;2.58;;;;;;;;;;5017157;28;20025;-28
2022/10/13 01:13:14;;;;;;;9.65;3.00;;;;;;;;;;5017071;28;20091;-28
2022/10/13 01:15:43;;;;;;;5.80;2.35;;;;;;;;;;5016998;28;20038;-28
2022/10/13 01:18:15;;;;;;;9.50;2.63;;;;;;;;;;5016982;28;20108;-28
2022/10/13 01:20:50;;;;;;;8.57;2.50;;;;;;;;;;5017218;28;20057;-27
2022/10/13 01:23:34;;;;;;;14.20;3.50;;;;;;;;;;5016845;28;20026;-28
2022/10/13 01:26:03;;;;;;;7.18;2.10;;;;;;;;;;5017043;28;20053;-27
2022/10/13 01:28:38;;;;;;;5.28;1.80;;;;;;;;;;5016819;28;20029;-28
2022/10/13 01:31:14;;;;;;;8.82;2.60;;;;;;;;;;5016743;28;20030;-28
2022/10/13 01:33:49;;;;;;;12.13;2.63;;;;;;;;;;5016962;28;20050;-28
2022/10/13 01:36:26;;;;;;;8.90;2.60;;;;;;;;;;5016005;28;20116;-27
2022/10/13 01:38:55;;;;;;;8.85;2.67;;;;;;;;;;5016923;28;20065;-27
2022/10/13 01:41:38;;;;;;;10.02;2.05;;;;;;;;;;5016825;28;20145;-27
2022/10/13 01:44:15;;;;;;;13.18;2.30;;;;;;;;;;5016413;28;20037;-28
2022/10/13 01:46:41;;;;;;;7.15;2.30;;;;;;;;;;5016753;28;20026;-28
2022/10/13 01:49:10;;;;;;;6.40;2.85;;;;;;;;;;5016674;28;20030;-28
2022/10/13 01:51:36;;;;;;;5.30;2.33;;;;;;;;;;5016897;28;20052;-28
2022/10/13 01:54:02;;;;;;;9.18;2.83;;;;;;;;;;5016214;28;20018;-28
2022/10/13 01:56:29;;;;;;;12.75;3.00;;;;;;;;;;5016524;28;20029;-28
2022/10/13 01:58:56;;;;;;;8.93;3.10;;;;;;;;;;5016490;28;20359;-28
2022/10/13 02:01:25;;;;;;;6.60;2.22;;;;;;;;;;5016443;28;20078;-27
2022/10/13 02:04:21;;;;;;;4.20;2.03;;;;;;;;;;5015869;28;20364;-28
2022/10/13 02:06:52;;;;;;;7.18;2.53;;;;;;;;;;5003611;28;20068;-27
2022/10/13 02:09:33;;;;;;;9.20;2.78;;;;;;;;;;5016009;28;20033;-27
2022/10/13 02:12:05;;;;;;;10.07;2.67;;;;;;;;;;5016231;28;20026;-27
2022/10/13 02:14:33;;;;;;;11.98;2.78;;;;;;;;;;5015976;28;20037;-27
2022/10/13 02:17:00;;;;;;;9.52;3.22;;;;;;;;;;5015852;28;20115;-27
2022/10/13 02:19:27;;;;;;;7.47;1.95;;;;;;;;;;5016114;28;20463;-28
2022/10/13 02:21:53;;;;;;;8.73;2.53;;;;;;;;;;5015733;28;20041;-28
2022/10/13 02:24:20;;;;;;;8.23;2.47;;;;;;;;;;5015750;28;20459;-27
2022/10/13 02:26:46;;;;;;;8.55;3.05;;;;;;;;;;5015605;28;20026;-27
2022/10/13 02:29:13;;;;;;;6.80;2.08;;;;;;;;;;5015949;28;20033;-27
2022/10/13 02:31:40;;;;;;;6.38;2.38;;;;;;;;;;5015629;28;20026;-27
2022/10/13 02:34:06;;;;;;;8.70;3.13;;;;;;;;;;5015484;28;20026;-27
2022/10/13 02:36:32;;;;;;;4.65;2.08;;;;;;;;;;5015559;28;20110;-27
2022/10/13 02:38:58;;;;;;;12.13;2.08;;;;;;;;;;5015497;28;20030;-27
2022/10/13 02:41:25;;;;;;;7.28;2.40;;;;;;;;;;5015541;28;20030;-27
2022/10/13 02:43:51;;;;;;;4.93;2.72;;;;;;;;;;5015313;28;20117;-27
2022/10/13 02:46:17;;;;;;;8.30;2.55;;;;;;;;;;5015328;28;20034;-27
2022/10/13 02:48:43;;;;;;;7.20;1.85;;;;;;;;;;5014428;28;20069;-28
2022/10/13 02:51:10;;;;;;;8.70;2.97;;;;;;;;;;5015283;28;20026;-28
2022/10/13 02:53:36;;;;;;;11.40;2.28;;;;;;;;;;5015214;28;20029;-28
2022/10/13 02:56:02;;;;;;;5.47;2.20;;;;;;;;;;5015508;28;20030;-28
2022/10/13 02:58:28;;;;;;;6.65;1.52;;;;;;;;;;5015235;28;20105;-28
2022/10/13 03:00:54;;;;;;;9.20;2.40;;;;;;;;;;5015170;28;20034;-28
2022/10/13 03:03:20;;;;;;;7.95;2.58;;;;;;;;;;5014963;28;20050;-27
2022/10/13 03:05:46;;;;;;;7.60;2.35;;;;;;;;;;5015020;28;20030;-27
2022/10/13 03:08:14;;;;;;;8.48;2.33;;;;;;;;;;5015343;28;20550;-28
2022/10/13 03:10:40;;;;;;;8.77;2.30;;;;;;;;;;5015340;28;20359;-27
2022/10/13 03:13:06;;;;;;;6.82;2.13;;;;;;;;;;5015206;28;20418;-27
2022/10/13 03:15:32;;;;;;;8.88;2.60;;;;;;;;;;5014962;28;20104;-28
2022/10/13 03:17:58;;;;;;;4.70;2.00;;;;;;;;;;5015203;28;20022;-27
2022/10/13 03:20:24;;;;;;;4.78;2.40;;;;;;;;;;5014978;28;20064;-27
2022/10/13 03:22:51;;;;;;;5.25;2.25;;;;;;;;;;5014840;28;20132;-27
2022/10/13 03:25:17;;;;;;;7.22;2.05;;;;;;;;;;5014763;28;20048;-28
2022/10/13 03:27:43;;;;;;;6.43;2.47;;;;;;;;;;5014816;28;20084;-27
2022/10/13 03:30:10;;;;;;;7.00;2.30;;;;;;;;;;5015107;28;20030;-28
2022/10/13 03:32:36;;;;;;;6.50;2.03;;;;;;;;;;5014977;28;20026;-27
2022/10/13 03:35:02;;;;;;;8.82;2.38;;;;;;;;;;5014798;28;20036;-27
2022/10/13 03:37:29;;;;;;;4.82;2.13;;;;;;;;;;5014994;28;20474;-27
2022/10/13 03:39:55;;;;;;;4.40;2.15;;;;;;;;;;5014970;28;20109;-28
2022/10/13 03:42:22;;;;;;;6.10;2.47;;;;;;;;;;5014880;28;20030;-28
2022/10/13 03:44:49;;;;;;;8.43;2.25;;;;;;;;;;5014580;28;20115;-27
2022/10/13 03:47:15;;;;;;;6.53;2.33;;;;;;;;;;5014643;28;20036;-28
2022/10/13 03:49:41;;;;;;;7.63;2.10;;;;;;;;;;5014911;28;20097;-27
2022/10/13 03:52:07;;;;;;;4.53;2.30;;;;;;;;;;5014478;28;20026;-27
2022/10/13 03:54:33;;;;;;;7.45;2.33;;;;;;;;;;5014313;28;20474;-27
2022/10/13 03:57:00;;;;;;;8.73;2.80;;;;;;;;;;5014733;28;20096;-28
2022/10/13 03:59:28;;;;;;;8.45;2.40;;;;;;;;;;5015931;28;20080;-27
2022/10/13 04:01:54;;;;;;;5.15;2.25;;;;;;;;;;5018262;28;20104;-27
2022/10/13 04:04:20;;;;;;;6.88;2.00;;;;;;;;;;5018135;28;20348;-27
2022/10/13 04:06:46;;;;;;;5.78;2.17;;;;;;;;;;5018668;28;20128;-27
2022/10/13 04:09:12;;;;;;;4.82;2.17;;;;;;;;;;5018136;28;20450;-27
2022/10/13 04:11:38;;;;;;;5.97;2.10;;;;;;;;;;5018386;28;20033;-27
2022/10/13 04:14:05;;;;;;;6.93;2.22;;;;;;;;;;5017981;28;20037;-27
2022/10/13 04:16:31;;;;;;;6.88;2.88;;;;;;;;;;5017939;28;20038;-27
2022/10/13 04:18:59;;;;;;;3.60;1.83;;;;;;;;;;5018152;28;20037;-27
2022/10/13 04:21:25;;;;;;;8.20;2.67;;;;;;;;;;5018007;28;20030;-27
2022/10/13 04:23:54;;;;;;;4.30;1.90;;;;;;;;;;5017788;28;20029;-27
2022/10/13 04:26:21;;;;;;;3.58;2.17;;;;;;;;;;5017855;28;20359;-27
2022/10/13 04:28:48;;;;;;;4.03;2.30;;;;;;;;;;5018122;28;20033;-27
2022/10/13 04:31:14;;;;;;;4.53;1.50;;;;;;;;;;5033304;28;20026;-27
2022/10/13 04:33:41;;;;;;;3.85;2.05;;;;;;;;;;5017685;28;20033;-28
2022/10/13 04:36:08;;;;;;;4.22;1.90;;;;;;;;;;5017730;28;20057;-27
2022/10/13 04:38:34;;;;;;;3.88;2.10;;;;;;;;;;5017621;28;20370;-27
2022/10/13 04:41:03;;;;;;;9.93;2.28;;;;;;;;;;5017561;28;20080;-27
2022/10/13 04:43:30;;;;;;;7.55;2.20;;;;;;;;;;5017472;28;20034;-27
2022/10/13 04:46:02;;;;;;;6.15;2.13;;;;;;;;;;5017689;28;20410;-27
2022/10/13 04:48:28;;;;;;;7.75;1.90;;;;;;;;;;5017737;28;20018;-27
2022/10/13 04:50:58;;;;;;;3.60;2.10;;;;;;;;;;5017389;28;20101;-27
2022/10/13 04:53:27;;;;;;;10.13;2.40;;;;;;;;;;5017314;28;20022;-27
2022/10/13 04:55:54;;;;;;;6.65;2.45;;;;;;;;;;5017331;28;20045;-27
2022/10/13 04:58:20;;;;;;;3.63;1.90;;;;;;;;;;5017286;28;20030;-27
2022/10/13 05:00:46;;;;;;;6.70;2.13;;;;;;;;;;5017138;28;20038;-27
2022/10/13 05:03:12;;;;;;;4.05;2.10;;;;;;;;;;5016905;28;20485;-27
2022/10/13 05:05:39;;;;;;;5.93;2.28;;;;;;;;;;5016972;28;20026;-27
2022/10/13 05:08:05;;;;;;;3.67;2.15;;;;;;;;;;5017044;28;20373;-28
2022/10/13 05:10:31;;;;;;;6.05;2.40;;;;;;;;;;5016188;28;20443;-27
2022/10/13 05:12:57;;;;;;;5.65;1.88;;;;;;;;;;5017164;28;20083;-27
2022/10/13 05:15:23;;;;;;;4.97;2.10;;;;;;;;;;5016857;28;20036;-27
2022/10/13 05:17:50;;;;;;;9.63;2.33;;;;;;;;;;5016856;28;20161;-27
2022/10/13 05:20:16;;;;;;;3.13;2.22;;;;;;;;;;5017083;28;20026;-26
2022/10/13 05:22:42;;;;;;;8.23;2.13;;;;;;;;;;5017002;28;20041;-27
2022/10/13 05:25:09;;;;;;;6.35;1.70;;;;;;;;;;5016930;28;20034;-27
2022/10/13 05:27:35;;;;;;;7.30;2.20;;;;;;;;;;5016691;28;20018;-27
2022/10/13 05:30:01;;;;;;;5.65;2.53;;;;;;;;;;5016521;28;20053;-27
2022/10/13 05:32:27;;;;;;;9.27;1.88;;;;;;;;;;5016712;28;20018;-27
2022/10/13 05:34:53;;;;;;;4.93;2.00;;;;;;;;;;5031964;28;20022;-28
2022/10/13 05:37:21;;;;;;;10.02;2.53;;;;;;;;;;5031875;28;20025;-27
2022/10/13 05:39:47;;;;;;;6.75;1.73;;;;;;;;;;5016177;28;20113;-27
2022/10/13 05:42:13;;;;;;;14.70;2.30;;;;;;;;;;5016262;28;20022;-27
2022/10/13 05:44:39;;;;;;;8.25;1.70;;;;;;;;;;5016286;28;20056;-28
2022/10/13 05:47:06;;;;;;;19.48;3.60;;;;;;;;;;5016279;28;20030;-27
2022/10/13 05:49:35;;;;;;;32.00;3.75;;;;;;;;;;5016271;28;20029;-27
2022/10/13 05:52:03;;;;;;;23.67;3.03;;;;;;;;;;5016354;28;20077;-27
2022/10/13 05:54:29;;;;;;;10.98;2.13;;;;;;;;;;5016338;28;20362;-27
2022/10/13 05:57:07;;;;;;;12.48;3.28;;;;;;;;;;5016264;28;20037;-27
2022/10/13 05:59:35;;;;;;;14.32;3.47;;;;;;;;;;5016239;28;20348;-27
2022/10/13 06:02:01;;;;;;;13.10;3.40;;;;;;;;;;5498121;22;20072;-28
2022/10/13 06:04:31;;;;;;;12.75;3.72;;;;;;;;;;4994517;28;20125;-28
2022/10/13 06:06:57;;;;;;;10.17;2.53;;;;;;;;;;4996456;28;20378;-28
2022/10/13 06:09:23;;;;;;;6.88;1.98;;;;;;;;;;4996230;28;20268;-28
2022/10/13 06:11:49;;;;;;;7.50;2.22;;;;;;;;;;4996099;28;20030;-29
2022/10/13 06:14:15;;;;;;;5.03;2.10;;;;;;;;;;4996462;28;20081;-28
2022/10/13 06:16:42;;;;;;;11.93;2.80;;;;;;;;;;4996475;28;20407;-28
2022/10/13 06:19:08;;;;;;;12.30;2.72;;;;;;;;;;4996204;28;20042;-28
2022/10/13 06:21:34;;;;;;;11.02;2.40;;;;;;;;;;4996103;28;20336;-28
2022/10/13 06:24:00;;;;;;;5.85;2.70;;;;;;;;;;4996279;28;20039;-28
2022/10/13 06:26:26;;;;;;;10.95;2.55;;;;;;;;;;4995994;28;20058;-28
2022/10/13 06:28:53;;;;;;;6.10;2.88;;;;;;;;;;4996340;28;20022;-28
2022/10/13 06:31:19;;;;;;;14.95;2.45;;;;;;;;;;4996034;28;20069;-28
2022/10/13 06:33:45;;;;;;;11.05;2.20;;;;;;;;;;4995945;28;20080;-28
2022/10/13 06:36:11;;;;;;;5.10;2.45;;;;;;;;;;4996190;28;20030;-28
2022/10/13 06:38:37;;;;;;;9.43;2.33;;;;;;;;;;4995897;28;20053;-28
2022/10/13 06:41:04;;;;;;;6.82;2.83;;;;;;;;;;4995654;28;20380;-28
2022/10/13 06:43:31;;;;;;;14.48;2.95;;;;;;;;;;4995649;28;20048;-28
2022/10/13 06:45:58;;;;;;;9.80;2.65;;;;;;;;;;4995946;28;20355;-28
2022/10/13 06:48:24;;;;;;;12.98;2.88;;;;;;;;;;4978479;28;20054;-28
2022/10/13 06:50:51;;;;;;;10.32;2.63;;;;;;;;;;4995821;28;20038;-28
2022/10/13 06:53:17;;;;;;;11.35;2.95;;;;;;;;;;4995556;28;20030;-28
2022/10/13 06:55:43;;;;;;;9.80;3.05;;;;;;;;;;4995498;28;20022;-28
2022/10/13 06:58:10;;;;;;;8.05;2.20;;;;;;;;;;4995731;28;20053;-28
2022/10/13 07:00:37;;;;;;;16.17;2.55;;;;;;;;;;4995478;28;20517;-28
2022/10/13 07:03:03;;;;;;;13.95;2.78;;;;;;;;;;4995024;28;20054;-28
2022/10/13 07:05:29;;;;;;;5.10;1.90;;;;;;;;;;4995306;28;20118;-28
2022/10/13 07:07:55;;;;;;;8.70;2.42;;;;;;;;;;4995327;28;20561;-28
2022/10/13 07:10:21;;;;;;;7.55;2.15;;;;;;;;;;4995422;28;20022;-28
2022/10/13 07:12:48;;;;;;;11.48;2.42;;;;;;;;;;4995445;28;20027;-28
2022/10/13 07:15:14;;;;;;;16.05;2.42;;;;;;;;;;4995259;28;20371;-28
2022/10/13 07:17:40;;;;;;;15.48;3.58;;;;;;;;;;4995301;28;20037;-28
2022/10/13 07:20:07;;;;;;;9.52;3.10;;;;;;;;;;4995452;28;20029;-28
2022/10/13 07:22:33;;;;;;;7.30;2.38;;;;;;;;;;4995053;28;20479;-29
2022/10/13 07:24:59;;;;;;;14.20;2.50;;;;;;;;;;4995101;28;20057;-28
2022/10/13 07:27:25;;;;;;;6.32;2.63;;;;;;;;;;4995105;28;20110;-28
2022/10/13 07:29:51;;;;;;;12.65;2.28;;;;;;;;;;4995075;28;20062;-28
2022/10/13 07:32:17;;;;;;;10.18;2.38;;;;;;;;;;4978140;28;20031;-27
2022/10/13 07:34:44;;;;;;;13.43;3.28;;;;;;;;;;4999277;28;20523;-28
2022/10/13 07:37:10;;;;;;;7.82;2.63;;;;;;;;;;5001471;28;20057;-28
2022/10/13 07:39:36;;;;;;;16.92;2.40;;;;;;;;;;5001504;28;20030;-28
2022/10/13 07:42:02;;;;;;;15.30;3.63;;;;;;;;;;5001338;28;20041;-28
2022/10/13 07:44:28;;;;;;;10.52;3.35;;;;;;;;;;5001550;28;20050;-28
2022/10/13 07:46:54;;;;;;;13.27;2.92;;;;;;;;;;5001297;28;20040;-28
2022/10/13 07:49:21;;;;;;;8.05;2.42;;;;;;;;;;5001352;28;20034;-28
2022/10/13 07:51:47;;;;;;;22.63;2.67;;;;;;;;;;5001315;28;20061;-28
2022/10/13 07:54:14;;;;;;;7.88;2.17;;;;;;;;;;5001367;28;20022;-28
2022/10/13 07:56:40;;;;;;;17.33;3.40;;;;;;;;;;5001253;28;20037;-28
2022/10/13 07:59:06;;;;;;;12.27;3.78;;;;;;;;;;5001303;28;20033;-28
2022/10/13 08:01:32;;;;;;;9.95;2.20;;;;;;;;;;5001311;28;20026;-28
2022/10/13 08:03:58;;;;;;;7.78;2.55;;;;;;;;;;5000988;28;20057;-28
2022/10/13 08:06:25;;;;;;;11.35;3.20;;;;;;;;;;5001498;28;20038;-28
2022/10/13 08:08:51;;;;;;;11.23;2.60;;;;;;;;;;5001472;28;20104;-28
2022/10/13 08:11:17;;;;;;;10.52;2.63;;;;;;;;;;5001434;28;20022;-28
2022/10/13 08:13:48;;;;;;;13.32;2.65;;;;;;;;;;5001310;28;20023;-28
2022/10/13 08:16:14;;;;;;;12.85;2.78;;;;;;;;;;5001477;28;20049;-28
2022/10/13 08:18:41;;;;;;;15.10;2.58;;;;;;;;;;5001432;28;20367;-28
2022/10/13 08:21:09;;;;;;;10.93;2.40;;;;;;;;;;5001349;28;20398;-28
2022/10/13 08:23:35;;;;;;;11.63;3.42;;;;;;;;;;5000885;28;20041;-28
2022/10/13 08:26:01;;;;;;;4.85;2.28;;;;;;;;;;5001186;28;20126;-28
2022/10/13 08:28:28;;;;;;;12.43;3.50;;;;;;;;;;5000973;28;20046;-28
2022/10/13 08:30:58;;;;;;;13.60;3.25;;;;;;;;;;5001231;28;20409;-28
2022/10/13 08:33:25;;;;;;;10.77;2.85;;;;;;;;;;5000883;28;20026;-28
2022/10/13 08:35:52;;;;;;;15.82;4.18;;;;;;;;;;5000805;28;20035;-28
2022/10/13 08:38:18;;;;;;;15.38;2.33;;;;;;;;;;5000861;28;20098;-28
2022/10/13 08:40:51;;;;;;;7.07;2.75;;;;;;;;;;5000940;28;20031;-28
2022/10/13 08:43:19;;;;;;;15.55;2.75;;;;;;;;;;5000861;28;20066;-28
2022/10/13 08:45:47;;;;;;;12.30;2.40;;;;;;;;;;4999056;28;20456;-28
2022/10/13 08:48:18;;;;;;;11.98;3.03;;;;;;;;;;4997650;28;20102;-28
2022/10/13 08:50:46;;;;;;;14.70;2.72;;;;;;;;;;4997806;28;20022;-28
2022/10/13 08:53:30;;;;;;;16.73;2.63;;;;;;;;;;4997700;28;20113;-28
2022/10/13 08:56:20;;;;;;;7.93;2.88;;;;;;;;;;4997881;28;20070;-29
2022/10/13 08:58:47;;;;;;;12.68;3.10;;;;;;;;;;4998093;28;20106;-28
2022/10/13 09:01:18;;;;;;;10.45;3.25;;;;;;;;;;4997621;28;20034;-28
2022/10/13 09:04:01;;;;;;;6.60;2.50;;;;;;;;;;4997383;28;20078;-28
2022/10/13 09:06:37;;;;;;;14.35;3.75;;;;;;;;;;4997449;28;20130;-28
2022/10/13 09:09:06;;;;;;;14.98;2.60;;;;;;;;;;4997474;28;20375;-28
2022/10/13 09:11:37;;;;;;;12.32;3.00;;;;;;;;;;4997516;28;20027;-28
2022/10/13 09:14:04;;;;;;;16.73;2.97;;;;;;;;;;4997706;28;20046;-28
2022/10/13 09:16:34;;;;;;;16.98;3.15;;;;;;;;;;4997404;28;20117;-28
2022/10/13 09:19:14;;;;;;;19.23;3.33;;;;;;;;;;4997351;28;20030;-28
2022/10/13 09:21:40;;;;;;;23.70;4.57;;;;;;;;;;4997430;28;20375;-28
2022/10/13 09:24:08;;;;;;;20.27;4.10;;;;;;;;;;4997164;28;20066;-29
2022/10/13 09:26:38;;;;;;;11.73;2.58;;;;;;;;;;4997006;28;20085;-28
2022/10/13 09:29:11;;;;;;;13.93;3.50;;;;;;;;;;4997373;28;20404;-28
2022/10/13 09:31:38;;;;;;;16.13;3.22;;;;;;;;;;4997343;28;20118;-28
2022/10/13 09:34:13;;;;;;;17.83;3.10;;;;;;;;;;4996840;28;20077;-28
2022/10/13 09:36:40;;;;;;;12.30;3.42;;;;;;;;;;4996878;28;20117;-28
2022/10/13 09:39:13;;;;;;;17.70;3.58;;;;;;;;;;4996997;28;20037;-28
2022/10/13 09:41:41;;;;;;;13.93;2.83;;;;;;;;;;4997029;28;20057;-28
2022/10/13 09:44:13;;;;;;;16.83;4.03;;;;;;;;;;4996815;28;20137;-28
2022/10/13 09:46:51;;;;;;;20.48;4.22;;;;;;;;;;4996689;28;20057;-28
2022/10/13 09:49:29;;;;;;;19.58;3.88;;;;;;;;;;4996923;28;20027;-28
2022/10/13 09:52:04;;;;;;;11.52;3.40;;;;;;;;;;4996432;28;20026;-28
2022/10/13 09:54:40;;;;;;;15.23;3.30;;;;;;;;;;4996976;28;20088;-28
2022/10/13 09:57:16;;;;;;;15.73;3.08;;;;;;;;;;4996352;28;20034;-28
2022/10/13 09:59:48;;;;;;;16.85;3.03;;;;;;;;;;4996884;28;20053;-28
2022/10/13 10:02:20;;;;;;;14.18;3.78;;;;;;;;;;4996299;28;20415;-28
2022/10/13 10:04:46;;;;;;;17.85;3.10;;;;;;;;;;4996548;28;20056;-28
2022/10/13 10:07:15;;;;;;;19.08;3.13;;;;;;;;;;4996389;28;20061;-28
2022/10/13 10:09:45;;;;;;;13.45;2.92;;;;;;;;;;4996652;28;20336;-28
2022/10/13 10:12:16;;;;;;;14.02;2.80;;;;;;;;;;4996490;28;20038;-28
2022/10/13 10:14:42;;;;;;;12.73;3.40;;;;;;;;;;4996645;28;20037;-28
2022/10/13 10:17:27;;;;;;;15.75;3.25;;;;;;;;;;4996078;28;20034;-28
2022/10/13 10:19:53;;;;;;;10.57;2.92;;;;;;;;;;4996114;28;20026;-28
2022/10/13 10:22:30;;;;;;;15.82;2.95;;;;;;;;;;4996058;28;20022;-28
2022/10/13 10:25:15;;;;;;;19.30;4.45;;;;;;;;;;4995991;28;20041;-28
2022/10/13 10:27:43;;;;;;;20.65;3.45;;;;;;;;;;4996142;28;20367;-28
2022/10/13 10:30:17;;;;;;;20.27;4.07;;;;;;;;;;4996029;28;20375;-28
2022/10/13 10:32:47;;;;;;;22.80;4.18;;;;;;;;;;4995860;28;20124;-28
2022/10/13 10:35:20;;;;;;;19.42;3.88;;;;;;;;;;4996081;28;20030;-28
2022/10/13 10:37:49;;;;;;;20.05;3.80;;;;;;;;;;4995827;28;20022;-28
2022/10/13 10:40:25;;;;;;;19.17;4.15;;;;;;;;;;4995641;28;20510;-27
2022/10/13 10:43:22;;;;;;;22.58;4.75;;;;;;;;;;4995631;28;20045;-28
2022/10/13 10:45:48;;;;;;;29.48;3.78;;;;;;;;;;4995814;28;20026;-28
2022/10/13 10:48:24;;;;;;;21.55;3.50;;;;;;;;;;4995753;28;20030;-28
2022/10/13 10:50:51;;;;;;;23.25;6.00;;;;;;;;;;4995871;28;20471;-28
2022/10/13 10:53:36;;;;;;;14.57;3.17;;;;;;;;;;4995418;28;20093;-28
2022/10/13 10:56:05;;;;;;;26.63;4.47;;;;;;;;;;4995382;28;20049;-28
2022/10/13 10:58:40;;;;;;;8.65;3.17;;;;;;;;;;4995682;28;20041;-27
2022/10/13 11:01:25;;;;;;;20.83;4.97;;;;;;;;;;4996080;28;20041;-28
2022/10/13 11:03:57;;;;;;;23.80;3.38;;;;;;;;;;4995132;28;20180;-28
2022/10/13 11:06:25;;;;;;;15.07;3.25;;;;;;;;;;4995444;28;20042;-28
2022/10/13 11:08:54;;;;;;;19.27;3.38;;;;;;;;;;4994429;28;20029;-28
2022/10/13 11:11:20;;;;;;;12.55;3.33;;;;;;;;;;4995450;28;20408;-28
2022/10/13 11:13:59;;;;;;;26.52;4.38;;;;;;;;;;4995252;28;20027;-28
2022/10/13 11:16:30;;;;;;;20.08;5.47;;;;;;;;;;4995416;28;20116;-28
2022/10/13 11:19:04;;;;;;;13.57;3.53;;;;;;;;;;4995429;28;20101;-28
2022/10/13 11:21:49;;;;;;;18.80;3.40;;;;;;;;;;4995378;28;20042;-28
2022/10/13 11:24:33;;;;;;;15.77;2.70;;;;;;;;;;4995356;28;20073;-28
2022/10/13 11:27:09;;;;;;;17.25;3.70;;;;;;;;;;4995018;28;20037;-28
2022/10/13 11:29:52;;;;;;;13.90;3.08;;;;;;;;;;4994992;28;20043;-28
2022/10/13 11:32:40;;;;;;;17.15;2.85;;;;;;;;;;4994962;28;20367;-28
2022/10/13 11:35:09;;;;;;;18.45;4.80;;;;;;;;;;4995078;28;20030;-28
2022/10/13 11:37:35;;;;;;;19.25;3.80;;;;;;;;;;4995001;28;20425;-28
2022/10/13 11:40:04;;;;;;;19.00;3.95;;;;;;;;;;4994743;28;20045;-28
2022/10/13 11:42:43;;;;;;;21.48;4.35;;;;;;;;;;4995131;28;20045;-28
2022/10/13 11:45:23;;;;;;;11.20;3.28;;;;;;;;;;4994892;28;20054;-29
2022/10/13 11:47:52;;;;;;;11.40;3.05;;;;;;;;;;4994867;28;20029;-28
2022/10/13 11:50:18;;;;;;;20.88;4.85;;;;;;;;;;4994792;28;20022;-29
2022/10/13 11:52:57;;;;;;;22.73;3.45;;;;;;;;;;4994962;28;20447;-29
2022/10/13 11:55:31;;;;;;;18.88;4.32;;;;;;;;;;4995149;28;20366;-29
2022/10/13 11:58:18;;;;;;;16.45;3.50;;;;;;;;;;4995132;28;20037;-29
2022/10/13 12:00:56;;;;;;;13.77;3.80;;;;;;;;;;4994691;28;20034;-29
2022/10/13 12:03:27;;;;;;;16.83;4.30;;;;;;;;;;4994687;28;20537;-29
2022/10/13 12:05:55;;;;;;;18.38;4.22;;;;;;;;;;4994735;28;20030;-28
2022/10/13 12:08:22;;;;;;;21.00;4.70;;;;;;;;;;4994995;28;20034;-28
2022/10/13 12:10:54;;;;;;;18.30;4.18;;;;;;;;;;4994745;28;20027;-29
2022/10/13 12:13:22;;;;;;;11.60;3.80;;;;;;;;;;4994600;28;20026;-28
2022/10/13 12:15:48;;;;;;;14.95;3.60;;;;;;;;;;4994905;28;20081;-29
2022/10/13 12:18:41;;;;;;;14.80;3.70;;;;;;;;;;4994641;28;20364;-29
2022/10/13 12:21:12;;;;;;;18.70;3.42;;;;;;;;;;4993607;28;20042;-28
2022/10/13 12:23:38;;;;;;;;;;;;;;;;;;4998736;28;20363;-29
2022/10/13 12:26:05;;;;;;;27.73;5.32;;;;;;;;;;4998150;28;19913;-28
2022/10/13 12:28:45;;;;;;;11.20;3.13;;;;;;;;;;4998231;28;20096;-28
2022/10/13 12:31:21;;;;;;;13.00;3.33;;;;;;;;;;4998244;28;20030;-28
2022/10/13 12:33:55;;;;;;;12.30;4.00;;;;;;;;;;4998161;28;20467;-28
2022/10/13 12:36:25;;;;;;;18.17;3.40;;;;;;;;;;4998458;28;20364;-29
2022/10/13 12:38:52;;;;;;;13.95;3.17;;;;;;;;;;4998929;28;20121;-29
2022/10/13 12:41:39;;;;;;;21.85;3.90;;;;;;;;;;4998219;28;20034;-29
2022/10/13 12:44:05;;;;;;;16.92;4.05;;;;;;;;;;4997490;28;20026;-29
2022/10/13 12:46:39;;;;;;;17.60;3.63;;;;;;;;;;4997676;28;20042;-29
2022/10/13 12:49:06;;;;;;;21.70;3.95;;;;;;;;;;4997895;28;20042;-29
2022/10/13 12:51:34;;;;;;;21.92;4.15;;;;;;;;;;4997894;28;20030;-28
2022/10/13 12:54:05;;;;;;;18.15;3.83;;;;;;;;;;4997556;28;20026;-29
2022/10/13 12:56:32;;;;;;;17.88;4.43;;;;;;;;;;4997663;28;20049;-29
2022/10/13 12:58:59;;;;;;;22.33;5.55;;;;;;;;;;4998022;28;20126;-29
2022/10/13 13:01:33;;;;;;;17.00;3.80;;;;;;;;;;4997677;28;20034;-28
2022/10/13 13:04:01;;;;;;;12.38;3.67;;;;;;;;;;4997864;28;20057;-28
2022/10/13 13:06:35;;;;;;;16.55;3.70;;;;;;;;;;4997679;28;20406;-29
2022/10/13 13:09:08;;;;;;;12.48;4.35;;;;;;;;;;4997324;28;20026;-29
2022/10/13 13:11:38;;;;;;;25.33;4.75;;;;;;;;;;4997587;28;20026;-29
2022/10/13 13:14:24;;;;;;;32.47;4.78;;;;;;;;;;4997187;28;20451;-29
2022/10/13 13:17:04;;;;;;;16.05;3.40;;;;;;;;;;4997608;28;20031;-29
2022/10/13 13:19:31;;;;;;;20.13;3.70;;;;;;;;;;4997502;28;20081;-28
2022/10/13 13:21:58;;;;;;;20.33;4.45;;;;;;;;;;4997347;28;20030;-29
2022/10/13 13:24:24;;;;;;;12.07;3.88;;;;;;;;;;4997482;28;20038;-29
2022/10/13 13:26:50;;;;;;;13.27;3.85;;;;;;;;;;4997003;28;20097;-28
2022/10/13 13:29:16;;;;;;;17.00;3.58;;;;;;;;;;4997087;28;20023;-28
2022/10/13 13:31:42;;;;;;;15.60;3.55;;;;;;;;;;4996142;28;20030;-29
2022/10/13 13:34:08;;;;;;;25.98;3.83;;;;;;;;;;4997272;28;20050;-29
2022/10/13 13:36:34;;;;;;;21.98;3.92;;;;;;;;;;4997025;28;20026;-28
2022/10/13 13:39:00;;;;;;;11.80;3.33;;;;;;;;;;4996943;28;20030;-28
2022/10/13 13:41:29;;;;;;;18.60;3.65;;;;;;;;;;4996914;28;20034;-28
2022/10/13 13:43:56;;;;;;;13.02;3.55;;;;;;;;;;4997055;28;20037;-28
2022/10/13 13:46:30;;;;;;;12.02;3.75;;;;;;;;;;4997395;28;20161;-28
2022/10/13 13:48:57;;;;;;;25.90;5.22;;;;;;;;;;4996694;28;20022;-28
2022/10/13 13:51:23;;;;;;;10.38;3.53;;;;;;;;;;4996613;28;20022;-29
2022/10/13 13:53:49;;;;;;;27.20;4.18;;;;;;;;;;4996466;28;20105;-28
2022/10/13 13:56:16;;;;;;;21.95;3.92;;;;;;;;;;4997089;28;20058;-28
2022/10/13 13:58:43;;;;;;;23.30;4.15;;;;;;;;;;4996774;28;20030;-28
2022/10/13 14:01:10;;;;;;;24.10;4.07;;;;;;;;;;4996500;28;20444;-29
2022/10/13 14:03:36;;;;;;;16.83;4.30;;;;;;;;;;4996203;28;20399;-28
2022/10/13 14:06:02;;;;;;;15.38;3.50;;;;;;;;;;4996566;28;20038;-28
2022/10/13 14:08:33;;;;;;;18.75;3.28;;;;;;;;;;4996721;28;20352;-29
2022/10/13 14:10:59;;;;;;;28.00;4.20;;;;;;;;;;4996287;28;20030;-28
2022/10/13 14:13:25;;;;;;;27.83;4.10;;;;;;;;;;4996279;28;20094;-29
2022/10/13 14:15:58;;;;;;;19.05;4.07;;;;;;;;;;4996211;28;20122;-28
2022/10/13 14:18:24;;;;;;;16.35;5.50;;;;;;;;;;4996370;28;20093;-29
2022/10/13 14:20:50;;;;;;;15.50;3.30;;;;;;;;;;4996105;28;20380;-28
2022/10/13 14:23:16;;;;;;;13.65;3.60;;;;;;;;;;4996013;28;20042;-28
2022/10/13 14:25:43;;;;;;;28.67;4.22;;;;;;;;;;4996200;28;20031;-29
2022/10/13 14:28:09;;;;;;;21.02;3.47;;;;;;;;;;4995923;28;20025;-28
2022/10/13 14:30:38;;;;;;;25.15;4.22;;;;;;;;;;4996175;28;20030;-29
2022/10/13 14:33:04;;;;;;;32.40;4.25;;;;;;;;;;4995705;28;20023;-28
2022/10/13 14:35:30;;;;;;;21.83;4.18;;;;;;;;;;4995872;28;20034;-29
2022/10/13 14:37:56;;;;;;;14.07;3.50;;;;;;;;;;4996073;28;20108;-28
2022/10/13 14:40:22;;;;;;;23.88;5.13;;;;;;;;;;4995776;28;20463;-28
2022/10/13 14:42:48;;;;;;;19.92;4.30;;;;;;;;;;4995581;28;20034;-28
2022/10/13 14:45:15;;;;;;;25.90;3.97;;;;;;;;;;4995866;28;20031;-29
2022/10/13 14:47:42;;;;;;;18.50;3.58;;;;;;;;;;4995778;28;20085;-28